Time;durP1;ratioP1;P1;durP2;ratioP2;P2;SDS_P1;SDS_P2;PMS_P1;PMS_P2;Temp;Humidity;BMP_temperature;BMP_pressure;BME280_temperature;BME280_humidity;BME280_pressure;Samples;Min_cycle;Max_cycle;Signal;HPM_P1;HPM_P2
2021/04/28 00:01:19;;;;;;;6.20;5.53;;;;;;;;;;10316974;28;20083;-56
2021/04/28 00:06:17;;;;;;;5.72;5.10;;;;;;;;;;10317178;28;20485;-59
2021/04/28 00:11:14;;;;;;;12.13;6.72;;;;;;;;;;10316901;28;20063;-59
2021/04/28 00:16:13;;;;;;;8.05;5.85;;;;;;;;;;10316681;28;20040;-59
2021/04/28 00:21:10;;;;;;;7.75;4.95;;;;;;;;;;10316481;28;20075;-59
2021/04/28 00:26:08;;;;;;;5.50;4.97;;;;;;;;;;10316342;28;20049;-59
2021/04/28 00:31:06;;;;;;;6.28;5.68;;;;;;;;;;10316627;28;20076;-59
2021/04/28 00:36:05;;;;;;;10.88;5.82;;;;;;;;;;10316735;28;20048;-59
2021/04/28 00:41:05;;;;;;;5.93;5.30;;;;;;;;;;10316495;28;20106;-58
2021/04/28 00:46:03;;;;;;;6.80;6.10;;;;;;;;;;10316028;28;20083;-60
2021/04/28 00:51:01;;;;;;;6.53;5.75;;;;;;;;;;10314902;28;20041;-58
2021/04/28 00:55:59;;;;;;;7.38;5.50;;;;;;;;;;10322828;28;20048;-59
2021/04/28 01:00:57;;;;;;;6.28;5.68;;;;;;;;;;10323975;28;20075;-59
2021/04/28 01:05:56;;;;;;;6.00;5.40;;;;;;;;;;10323950;28;20059;-58
2021/04/28 01:10:54;;;;;;;6.40;5.80;;;;;;;;;;10323821;28;20044;-59
2021/04/28 01:15:54;;;;;;;5.72;5.18;;;;;;;;;;10323886;28;20087;-59
2021/04/28 01:20:52;;;;;;;6.03;5.53;;;;;;;;;;10321828;28;20055;-59
2021/04/28 01:25:51;;;;;;;6.10;4.80;;;;;;;;;;10323003;28;20079;-59
2021/04/28 01:30:50;;;;;;;5.03;4.53;;;;;;;;;;10322062;28;20493;-59
2021/04/28 01:35:51;;;;;;;7.43;4.88;;;;;;;;;;10321948;28;20053;-59
2021/04/28 01:40:49;;;;;;;5.13;4.65;;;;;;;;;;10321084;28;20497;-58
2021/04/28 01:45:49;;;;;;;6.13;4.57;;;;;;;;;;10322795;28;20048;-59
2021/04/28 01:50:48;;;;;;;6.97;4.22;;;;;;;;;;10322141;28;20041;-59
2021/04/28 01:55:46;;;;;;;6.95;4.45;;;;;;;;;;10321393;28;20056;-59
2021/04/28 02:01:23;;;;;;;4.67;4.27;;;;;;;;;;10317815;28;20151;-59
2021/04/28 02:06:21;;;;;;;5.45;4.30;;;;;;;;;;10318639;28;20067;-59
2021/04/28 02:11:18;;;;;;;5.75;5.18;;;;;;;;;;10321623;28;20407;-58
2021/04/28 02:16:17;;;;;;;5.10;4.60;;;;;;;;;;10320429;28;20056;-58
2021/04/28 02:21:15;;;;;;;5.80;5.30;;;;;;;;;;10321536;28;20072;-59
2021/04/28 02:26:24;;;;;;;4.57;4.18;;;;;;;;;;10319711;28;20063;-59
2021/04/28 02:31:22;;;;;;;6.63;4.60;;;;;;;;;;10319323;28;20048;-59
2021/04/28 02:36:28;;;;;;;4.80;4.40;;;;;;;;;;10319246;28;20166;-59
2021/04/28 02:41:44;;;;;;;5.57;5.18;;;;;;;;;;10322829;28;20334;-56
2021/04/28 02:46:42;;;;;;;4.53;4.13;;;;;;;;;;10320264;28;20037;-59
2021/04/28 02:51:45;;;;;;;5.15;4.65;;;;;;;;;;10318839;28;20052;-59
2021/04/28 02:57:20;;;;;;;5.97;5.25;;;;;;;;;;10314957;28;20080;-59
2021/04/28 03:02:20;;;;;;;7.03;5.43;;;;;;;;;;10308153;28;20040;-59
2021/04/28 03:07:21;;;;;;;5.65;5.05;;;;;;;;;;10318200;28;20048;-59
2021/04/28 03:12:18;;;;;;;5.82;5.18;;;;;;;;;;10319160;28;20490;-58
2021/04/28 03:17:22;;;;;;;6.00;5.40;;;;;;;;;;10318269;28;20068;-58
2021/04/28 03:22:22;;;;;;;6.72;5.45;;;;;;;;;;10318107;28;20044;-59
2021/04/28 03:27:23;;;;;;;5.00;4.57;;;;;;;;;;10318553;28;20076;-58
2021/04/28 03:32:25;;;;;;;5.60;5.00;;;;;;;;;;10317730;28;20044;-59
2021/04/28 03:37:44;;;;;;;4.85;4.43;;;;;;;;;;10317096;28;20488;-58
2021/04/28 03:42:42;;;;;;;5.40;4.90;;;;;;;;;;10317031;28;20582;-58
2021/04/28 03:47:40;;;;;;;6.35;4.78;;;;;;;;;;10313623;28;20098;-58
2021/04/28 03:52:38;;;;;;;6.00;5.00;;;;;;;;;;10316149;28;20044;-58
2021/04/28 03:58:08;;;;;;;8.55;5.40;;;;;;;;;;10317985;28;20436;-59
2021/04/28 04:03:06;;;;;;;6.18;5.43;;;;;;;;;;10316215;28;20433;-58
2021/04/28 04:08:22;;;;;;;7.20;5.97;;;;;;;;;;10322972;28;20079;-59
2021/04/28 04:13:22;;;;;;;5.63;4.85;;;;;;;;;;10316230;28;20040;-59
2021/04/28 04:18:20;;;;;;;9.95;7.45;;;;;;;;;;10316606;28;20083;-59
2021/04/28 04:23:22;;;;;;;5.82;5.22;;;;;;;;;;10315750;28;20048;-57
2021/04/28 04:28:38;;;;;;;6.05;5.25;;;;;;;;;;10316575;28;20047;-58
2021/04/28 04:33:52;;;;;;;5.78;5.07;;;;;;;;;;10316321;28;20068;-58
2021/04/28 04:39:08;;;;;;;4.95;4.43;;;;;;;;;;10317304;28;20091;-58
2021/04/28 04:44:24;;;;;;;10.15;5.65;;;;;;;;;;10315188;28;20045;-58
2021/04/28 04:49:30;;;;;;;5.88;4.90;;;;;;;;;;10316685;28;20075;-58
2021/04/28 04:54:27;;;;;;;5.07;4.57;;;;;;;;;;10315810;28;20041;-59
2021/04/28 04:59:26;;;;;;;4.47;4.07;;;;;;;;;;10315771;28;20087;-58
2021/04/28 05:04:23;;;;;;;5.97;5.38;;;;;;;;;;10317068;28;20072;-58
2021/04/28 05:09:21;;;;;;;6.18;5.57;;;;;;;;;;10315735;28;20037;-59
2021/04/28 05:14:18;;;;;;;6.25;5.63;;;;;;;;;;10316436;28;20418;-59
2021/04/28 05:19:18;;;;;;;7.10;6.15;;;;;;;;;;10316476;28;20096;-60
2021/04/28 05:24:16;;;;;;;11.30;7.30;;;;;;;;;;10315628;28;20168;-59
2021/04/28 05:29:28;;;;;;;16.02;8.18;;;;;;;;;;10316207;28;20075;-59
2021/04/28 05:34:26;;;;;;;8.75;7.82;;;;;;;;;;10316105;28;20083;-58
2021/04/28 05:39:23;;;;;;;8.27;7.32;;;;;;;;;;10318613;28;20076;-59
2021/04/28 05:44:21;;;;;;;6.03;5.43;;;;;;;;;;10323576;28;20044;-59
2021/04/28 05:49:18;;;;;;;5.43;4.93;;;;;;;;;;10323327;28;20044;-60
2021/04/28 05:54:16;;;;;;;7.45;5.40;;;;;;;;;;10323073;28;20044;-59
2021/04/28 05:59:14;;;;;;;9.45;5.65;;;;;;;;;;10322047;28;20103;-59
2021/04/28 06:04:11;;;;;;;8.57;7.60;;;;;;;;;;10322737;28;20421;-59
2021/04/28 06:09:09;;;;;;;9.68;4.75;;;;;;;;;;10320720;28;20485;-59
2021/04/28 06:14:07;;;;;;;6.88;5.18;;;;;;;;;;10321777;28;20493;-59
2021/04/28 06:19:04;;;;;;;7.60;6.43;;;;;;;;;;10322171;28;20083;-59
2021/04/28 06:24:04;;;;;;;6.35;5.15;;;;;;;;;;10322132;28;20098;-59
2021/04/28 06:29:01;;;;;;;7.53;6.38;;;;;;;;;;10321778;28;20059;-59
2021/04/28 06:33:59;;;;;;;8.18;7.25;;;;;;;;;;10321842;28;20470;-60
2021/04/28 06:38:57;;;;;;;6.03;5.30;;;;;;;;;;10321378;28;20553;-59
2021/04/28 06:43:54;;;;;;;10.60;9.20;;;;;;;;;;10321338;28;20478;-59
2021/04/28 06:48:51;;;;;;;8.07;7.25;;;;;;;;;;10320922;28;20064;-59
2021/04/28 06:53:50;;;;;;;15.98;8.10;;;;;;;;;;10319945;28;20490;-59
2021/04/28 06:58:49;;;;;;;13.80;8.73;;;;;;;;;;10318454;28;20067;-59
2021/04/28 07:03:47;;;;;;;7.03;6.32;;;;;;;;;;10320661;28;20060;-59
2021/04/28 07:08:45;;;;;;;11.02;6.28;;;;;;;;;;10320332;28;20502;-59
2021/04/28 07:13:44;;;;;;;10.15;5.47;;;;;;;;;;10320289;28;20077;-59
2021/04/28 07:18:41;;;;;;;6.60;5.68;;;;;;;;;;10319979;28;20082;-59
2021/04/28 07:23:39;;;;;;;15.85;7.55;;;;;;;;;;10319603;28;20084;-59
2021/04/28 07:28:36;;;;;;;7.05;5.38;;;;;;;;;;10319818;28;20525;-59
2021/04/28 07:33:34;;;;;;;6.72;5.20;;;;;;;;;;10319400;28;20501;-57
2021/04/28 07:38:33;;;;;;;6.22;5.00;;;;;;;;;;10318975;28;20072;-57
2021/04/28 07:43:31;;;;;;;6.53;5.75;;;;;;;;;;10318761;28;20076;-57
2021/04/28 07:48:28;;;;;;;10.35;8.05;;;;;;;;;;10318693;28;20059;-57
2021/04/28 07:53:27;;;;;;;9.93;7.88;;;;;;;;;;10318409;28;20045;-58
2021/04/28 07:58:24;;;;;;;7.25;5.97;;;;;;;;;;10317827;28;20095;-57
2021/04/28 08:03:22;;;;;;;10.30;5.95;;;;;;;;;;10317613;28;20051;-58
2021/04/28 08:08:20;;;;;;;8.75;5.60;;;;;;;;;;10317746;28;20072;-58
2021/04/28 08:13:18;;;;;;;8.82;6.18;;;;;;;;;;10317658;28;20183;-58
2021/04/28 08:18:16;;;;;;;6.55;5.05;;;;;;;;;;10317519;28;20094;-58
2021/04/28 08:23:13;;;;;;;7.45;5.80;;;;;;;;;;10317354;28;20494;-58
2021/04/28 08:28:11;;;;;;;8.93;6.18;;;;;;;;;;10317507;28;20485;-58
2021/04/28 08:33:09;;;;;;;14.75;6.93;;;;;;;;;;10317470;28;20052;-58
2021/04/28 08:38:07;;;;;;;9.27;6.32;;;;;;;;;;10317252;28;20052;-58
2021/04/28 08:43:04;;;;;;;6.03;5.43;;;;;;;;;;10316797;28;20103;-57
2021/04/28 08:48:01;;;;;;;9.07;6.30;;;;;;;;;;10316648;28;20040;-58
2021/04/28 08:53:00;;;;;;;10.45;7.40;;;;;;;;;;10316595;28;20064;-59
2021/04/28 08:57:58;;;;;;;13.45;9.43;;;;;;;;;;10316198;28;20057;-58
2021/04/28 09:02:56;;;;;;;13.30;8.00;;;;;;;;;;10317009;28;20087;-58
2021/04/28 09:07:54;;;;;;;15.13;9.80;;;;;;;;;;10316728;28;20076;-58
2021/04/28 09:12:53;;;;;;;8.93;5.38;;;;;;;;;;10316789;28;20037;-58
2021/04/28 09:17:52;;;;;;;9.77;6.28;;;;;;;;;;10324467;28;20056;-58
2021/04/28 09:23:27;;;;;;;9.57;6.07;;;;;;;;;;10327106;28;20095;-59
2021/04/28 09:28:50;;;;;;;6.25;5.53;;;;;;;;;;10330015;28;20083;-58
2021/04/28 09:33:51;;;;;;;7.60;5.40;;;;;;;;;;10324115;28;20071;-58
2021/04/28 09:38:49;;;;;;;8.45;5.50;;;;;;;;;;10323911;28;20540;-58
2021/04/28 09:43:47;;;;;;;7.88;6.13;;;;;;;;;;10323528;28;20040;-58
2021/04/28 09:48:58;;;;;;;7.78;6.55;;;;;;;;;;10322561;28;20048;-57
2021/04/28 09:54:08;;;;;;;13.80;7.53;;;;;;;;;;10323270;28;20527;-58
2021/04/28 09:59:05;;;;;;;9.32;6.25;;;;;;;;;;10322469;28;20084;-58
2021/04/28 10:04:04;;;;;;;12.38;6.90;;;;;;;;;;10322871;28;20536;-57
2021/04/28 10:09:02;;;;;;;12.43;6.10;;;;;;;;;;10322695;28;20497;-59
2021/04/28 10:14:00;;;;;;;7.70;6.40;;;;;;;;;;10322396;28;20505;-58
2021/04/28 10:18:57;;;;;;;8.95;6.35;;;;;;;;;;10322199;28;20072;-58
2021/04/28 10:23:56;;;;;;;9.13;7.43;;;;;;;;;;10321767;28;20067;-58
2021/04/28 10:28:53;;;;;;;13.13;6.85;;;;;;;;;;10322028;28;20052;-58
2021/04/28 10:33:51;;;;;;;16.35;9.13;;;;;;;;;;10321939;28;20067;-58
2021/04/28 10:39:09;;;;;;;15.30;7.72;;;;;;;;;;10321610;28;20532;-58
2021/04/28 10:44:19;;;;;;;16.45;6.93;;;;;;;;;;10321316;28;20045;-58
2021/04/28 10:49:17;;;;;;;11.05;6.20;;;;;;;;;;10321246;28;20076;-58
2021/04/28 10:54:22;;;;;;;9.50;6.03;;;;;;;;;;10320228;28;20052;-58
2021/04/28 10:59:30;;;;;;;13.68;7.68;;;;;;;;;;10320142;28;20103;-58
2021/04/28 11:04:28;;;;;;;12.90;6.85;;;;;;;;;;10320557;28;20044;-58
2021/04/28 11:09:27;;;;;;;17.58;7.22;;;;;;;;;;10319545;28;20055;-58
2021/04/28 11:14:27;;;;;;;9.10;5.80;;;;;;;;;;10320577;28;20037;-59
2021/04/28 11:19:34;;;;;;;18.67;10.55;;;;;;;;;;10320151;28;20076;-57
2021/04/28 11:24:46;;;;;;;12.52;6.78;;;;;;;;;;10318815;28;20045;-58
2021/04/28 11:29:56;;;;;;;14.25;9.05;;;;;;;;;;10319491;28;20044;-57
2021/04/28 11:34:53;;;;;;;11.65;7.28;;;;;;;;;;10319597;28;20056;-58
2021/04/28 11:39:51;;;;;;;14.52;7.47;;;;;;;;;;10318485;28;20544;-58
2021/04/28 11:44:50;;;;;;;11.73;6.70;;;;;;;;;;10319008;28;20048;-59
2021/04/28 11:49:49;;;;;;;12.48;7.93;;;;;;;;;;10319075;28;20048;-59
2021/04/28 11:54:52;;;;;;;11.27;6.95;;;;;;;;;;10318626;28;20045;-59
2021/04/28 11:59:50;;;;;;;13.68;8.75;;;;;;;;;;10317852;28;20099;-59
2021/04/28 12:04:49;;;;;;;17.05;9.95;;;;;;;;;;10318663;28;20079;-59
2021/04/28 12:09:48;;;;;;;17.98;8.15;;;;;;;;;;10318160;28;20501;-59
2021/04/28 12:14:49;;;;;;;12.60;6.15;;;;;;;;;;10317978;28;20036;-59
2021/04/28 12:19:48;;;;;;;15.63;8.38;;;;;;;;;;10317749;28;20551;-60
2021/04/28 12:24:46;;;;;;;12.90;7.03;;;;;;;;;;10317781;28;20049;-60
2021/04/28 12:29:46;;;;;;;14.25;7.90;;;;;;;;;;10317801;28;20083;-60
2021/04/28 12:34:44;;;;;;;27.05;13.32;;;;;;;;;;10317613;28;20056;-60
2021/04/28 12:39:46;;;;;;;13.63;7.55;;;;;;;;;;10317419;28;20079;-60
2021/04/28 12:44:44;;;;;;;8.65;6.47;;;;;;;;;;10317445;28;20048;-59
2021/04/28 12:49:41;;;;;;;12.80;6.35;;;;;;;;;;10316997;28;20040;-60
2021/04/28 12:54:39;;;;;;;7.43;5.72;;;;;;;;;;10317114;28;20086;-59
2021/04/28 12:59:37;;;;;;;16.15;8.05;;;;;;;;;;10316257;28;20489;-58
2021/04/28 13:04:34;;;;;;;12.27;7.32;;;;;;;;;;10317044;28;20437;-58
2021/04/28 13:09:32;;;;;;;9.13;5.88;;;;;;;;;;10316731;28;20067;-58
2021/04/28 13:14:50;;;;;;;11.95;5.75;;;;;;;;;;10315095;28;20044;-58
2021/04/28 13:19:47;;;;;;;10.20;6.07;;;;;;;;;;10316401;28;20463;-58
2021/04/28 13:24:46;;;;;;;10.43;6.45;;;;;;;;;;10316560;28;20072;-59
2021/04/28 13:29:55;;;;;;;7.60;6.18;;;;;;;;;;10316437;28;20040;-58
2021/04/28 13:34:52;;;;;;;12.80;5.57;;;;;;;;;;10316498;28;20052;-58
2021/04/28 13:39:49;;;;;;;11.20;6.88;;;;;;;;;;10316314;28;20090;-58
2021/04/28 13:44:47;;;;;;;14.38;6.78;;;;;;;;;;10316106;28;20044;-58
2021/04/28 13:49:45;;;;;;;12.20;6.28;;;;;;;;;;10315983;28;20091;-58
2021/04/28 13:54:42;;;;;;;10.02;5.03;;;;;;;;;;10315838;28;20154;-57
2021/04/28 13:59:40;;;;;;;11.32;6.22;;;;;;;;;;10316520;28;20088;-59
2021/04/28 14:04:37;;;;;;;7.68;5.40;;;;;;;;;;10323188;28;20075;-58
2021/04/28 14:09:35;;;;;;;14.00;6.78;;;;;;;;;;10322985;28;20421;-58
2021/04/28 14:14:33;;;;;;;12.93;6.50;;;;;;;;;;10322746;28;20064;-59
2021/04/28 14:19:31;;;;;;;11.95;7.90;;;;;;;;;;10322555;28;20170;-58
2021/04/28 14:24:29;;;;;;;14.02;6.95;;;;;;;;;;10322529;28;20048;-59
2021/04/28 14:29:27;;;;;;;13.23;7.88;;;;;;;;;;10322081;28;20064;-59
2021/04/28 14:34:25;;;;;;;13.57;8.75;;;;;;;;;;10321805;28;20064;-57
2021/04/28 14:39:22;;;;;;;14.88;9.20;;;;;;;;;;10321244;28;20056;-58
2021/04/28 14:44:20;;;;;;;34.75;18.23;;;;;;;;;;10324344;28;20088;-58
2021/04/28 14:49:18;;;;;;;14.13;8.60;;;;;;;;;;10320753;28;20072;-56
2021/04/28 14:54:16;;;;;;;13.48;8.05;;;;;;;;;;10358902;28;20074;-57
2021/04/28 14:59:13;;;;;;;9.18;6.43;;;;;;;;;;10322659;28;20052;-58
2021/04/28 15:04:10;;;;;;;14.23;7.10;;;;;;;;;;10357596;28;20075;-59
2021/04/28 15:09:08;;;;;;;12.80;9.95;;;;;;;;;;10323632;28;20107;-60
2021/04/28 15:14:06;;;;;;;30.38;14.48;;;;;;;;;;10355847;28;20048;-60
2021/04/28 15:19:03;;;;;;;15.00;8.30;;;;;;;;;;10323691;28;20104;-60
2021/04/28 15:24:01;;;;;;;19.80;8.52;;;;;;;;;;10355494;28;20086;-58
2021/04/28 15:29:01;;;;;;;12.18;9.57;;;;;;;;;;10324082;28;20072;-58
2021/04/28 15:34:08;;;;;;;13.30;8.07;;;;;;;;;;10354489;28;20040;-59
2021/04/28 15:39:06;;;;;;;26.17;18.45;;;;;;;;;;10322634;28;20076;-60
2021/04/28 15:44:06;;;;;;;22.30;15.60;;;;;;;;;;10318529;28;20102;-59
2021/04/28 15:49:05;;;;;;;20.48;13.57;;;;;;;;;;10354116;28;20094;-59
2021/04/28 15:54:02;;;;;;;14.07;9.38;;;;;;;;;;10322867;28;20044;-60
2021/04/28 15:59:00;;;;;;;17.10;12.05;;;;;;;;;;10353584;28;20184;-59
2021/04/28 16:03:59;;;;;;;14.07;9.60;;;;;;;;;;10322537;28;20060;-59
2021/04/28 16:08:56;;;;;;;15.23;10.93;;;;;;;;;;10352891;28;20528;-59
2021/04/28 16:13:53;;;;;;;13.70;8.55;;;;;;;;;;10323314;28;20071;-59
2021/04/28 16:18:51;;;;;;;16.02;11.30;;;;;;;;;;10351452;28;20546;-58
2021/04/28 16:23:49;;;;;;;21.02;10.52;;;;;;;;;;10323273;28;20083;-58
2021/04/28 16:28:46;;;;;;;15.00;10.25;;;;;;;;;;10348611;28;20039;-59
2021/04/28 16:33:44;;;;;;;9.77;7.32;;;;;;;;;;10324703;28;20490;-59
2021/04/28 16:38:41;;;;;;;14.30;9.35;;;;;;;;;;10311367;28;20505;-59
2021/04/28 16:43:40;;;;;;;9.60;6.43;;;;;;;;;;10311672;28;20068;-59
2021/04/28 16:48:37;;;;;;;20.40;13.93;;;;;;;;;;10312730;28;20064;-59
2021/04/28 16:53:35;;;;;;;15.70;9.40;;;;;;;;;;10316939;28;20052;-59
2021/04/28 16:58:32;;;;;;;15.68;11.95;;;;;;;;;;10314375;28;20056;-59
2021/04/28 17:03:47;;;;;;;12.30;9.65;;;;;;;;;;10316654;28;20151;-59
2021/04/28 17:08:44;;;;;;;16.17;9.32;;;;;;;;;;10316582;28;20094;-59
2021/04/28 17:13:41;;;;;;;12.95;7.32;;;;;;;;;;10316334;28;20374;-59
2021/04/28 17:18:39;;;;;;;21.10;12.95;;;;;;;;;;10314647;28;20048;-59
2021/04/28 17:23:37;;;;;;;20.73;15.13;;;;;;;;;;10315515;28;20539;-59
2021/04/28 17:28:34;;;;;;;11.88;10.05;;;;;;;;;;10334524;28;20064;-59
2021/04/28 17:33:32;;;;;;;10.32;7.75;;;;;;;;;;10318515;28;20037;-59
2021/04/28 17:38:29;;;;;;;21.38;14.73;;;;;;;;;;10360292;28;20501;-59
2021/04/28 17:43:27;;;;;;;9.77;8.23;;;;;;;;;;10326717;28;20079;-59
2021/04/28 17:48:25;;;;;;;15.07;10.48;;;;;;;;;;10335904;28;20048;-59
2021/04/28 17:53:22;;;;;;;9.82;7.53;;;;;;;;;;10321061;28;20534;-60
2021/04/28 17:58:19;;;;;;;9.73;7.57;;;;;;;;;;10319720;28;20045;-60
2021/04/28 18:03:19;;;;;;;14.13;8.73;;;;;;;;;;10321368;28;20072;-57
2021/04/28 18:08:16;;;;;;;13.80;7.97;;;;;;;;;;10322024;28;20505;-59
2021/04/28 18:13:14;;;;;;;13.52;8.35;;;;;;;;;;10357467;28;20554;-59
2021/04/28 18:18:13;;;;;;;8.45;7.53;;;;;;;;;;10327064;28;20064;-58
2021/04/28 18:23:11;;;;;;;13.95;8.30;;;;;;;;;;10356484;28;20082;-58
2021/04/28 18:28:09;;;;;;;14.05;10.70;;;;;;;;;;10327189;28;20068;-58
2021/04/28 18:33:07;;;;;;;11.63;7.38;;;;;;;;;;10356086;28;20076;-58
2021/04/28 18:38:08;;;;;;;8.38;7.35;;;;;;;;;;10359797;28;20047;-59
2021/04/28 18:43:07;;;;;;;13.23;8.95;;;;;;;;;;10361729;28;20079;-59
2021/04/28 18:48:04;;;;;;;15.48;7.68;;;;;;;;;;10326878;28;20501;-61
2021/04/28 18:53:02;;;;;;;17.23;9.30;;;;;;;;;;10354672;28;20079;-61
2021/04/28 18:57:59;;;;;;;11.10;7.65;;;;;;;;;;10326930;28;20430;-60
2021/04/28 19:02:57;;;;;;;11.18;8.45;;;;;;;;;;10352956;28;20083;-60
2021/04/28 19:07:55;;;;;;;12.40;8.95;;;;;;;;;;10327591;28;20087;-60
2021/04/28 19:12:52;;;;;;;11.02;7.18;;;;;;;;;;10352623;28;20491;-59
2021/04/28 19:17:49;;;;;;;14.55;8.48;;;;;;;;;;10327777;28;20039;-59
2021/04/28 19:22:48;;;;;;;17.00;8.68;;;;;;;;;;10350539;28;20105;-59
2021/04/28 19:27:45;;;;;;;9.80;7.72;;;;;;;;;;10327698;28;20501;-60
2021/04/28 19:32:44;;;;;;;11.82;7.85;;;;;;;;;;10349830;28;20044;-58
2021/04/28 19:37:42;;;;;;;12.70;7.75;;;;;;;;;;10328635;28;20047;-59
2021/04/28 19:42:45;;;;;;;13.88;7.60;;;;;;;;;;10348711;28;20075;-60
2021/04/28 19:47:43;;;;;;;10.38;7.70;;;;;;;;;;10343242;28;20072;-57
2021/04/28 19:52:40;;;;;;;12.70;7.32;;;;;;;;;;10356062;28;20126;-57
2021/04/28 19:57:38;;;;;;;10.13;8.00;;;;;;;;;;10355182;28;20087;-60
2021/04/28 20:02:36;;;;;;;17.15;10.73;;;;;;;;;;10356778;28;20102;-59
2021/04/28 20:07:33;;;;;;;13.75;9.75;;;;;;;;;;10358963;28;20044;-59
2021/04/28 20:12:31;;;;;;;19.20;8.32;;;;;;;;;;10356056;28;20052;-58
2021/04/28 20:17:28;;;;;;;10.70;7.55;;;;;;;;;;10357869;28;20490;-59
2021/04/28 20:22:26;;;;;;;15.30;7.50;;;;;;;;;;10358272;28;20075;-59
2021/04/28 20:27:24;;;;;;;13.82;8.15;;;;;;;;;;10357903;28;20075;-59
2021/04/28 20:32:21;;;;;;;16.55;8.45;;;;;;;;;;10358592;28;20106;-59
2021/04/28 20:37:19;;;;;;;11.95;8.10;;;;;;;;;;10358119;28;20036;-59
2021/04/28 20:42:17;;;;;;;14.55;9.45;;;;;;;;;;10357355;28;20504;-59
2021/04/28 20:47:15;;;;;;;13.85;8.80;;;;;;;;;;10358224;28;20489;-59
2021/04/28 20:52:13;;;;;;;11.82;8.68;;;;;;;;;;10358676;28;20477;-59
2021/04/28 20:57:10;;;;;;;12.52;8.43;;;;;;;;;;10357256;28;20071;-59
2021/04/28 21:02:08;;;;;;;10.73;7.75;;;;;;;;;;10357198;28;20083;-59
2021/04/28 21:07:07;;;;;;;9.45;7.78;;;;;;;;;;10357336;28;20060;-59
2021/04/28 21:12:04;;;;;;;12.30;8.00;;;;;;;;;;10363216;28;20055;-59
2021/04/28 21:17:03;;;;;;;9.32;8.00;;;;;;;;;;10365554;28;20072;-59
2021/04/28 21:22:02;;;;;;;10.20;8.07;;;;;;;;;;10365520;28;20112;-58
2021/04/28 21:27:00;;;;;;;11.02;7.85;;;;;;;;;;10365268;28;20437;-59
2021/04/28 21:32:00;;;;;;;11.35;8.50;;;;;;;;;;10365019;28;20067;-58
2021/04/28 21:36:59;;;;;;;15.23;8.55;;;;;;;;;;10364807;28;20036;-58
2021/04/28 21:41:57;;;;;;;9.40;7.80;;;;;;;;;;10364190;28;20106;-59
2021/04/28 21:46:55;;;;;;;12.10;7.80;;;;;;;;;;10364343;28;20047;-59
2021/04/28 21:51:53;;;;;;;11.82;7.78;;;;;;;;;;10364975;28;20540;-58
2021/04/28 21:56:50;;;;;;;11.57;8.18;;;;;;;;;;10363648;28;20505;-59
2021/04/28 22:01:49;;;;;;;12.40;8.38;;;;;;;;;;10363654;28;20081;-58
2021/04/28 22:06:46;;;;;;;9.40;8.40;;;;;;;;;;10363522;28;20079;-59
2021/04/28 22:11:43;;;;;;;17.40;8.73;;;;;;;;;;10363134;28;20075;-59
2021/04/28 22:16:41;;;;;;;11.85;9.40;;;;;;;;;;10363231;28;20229;-59
2021/04/28 22:21:39;;;;;;;13.70;9.00;;;;;;;;;;10362170;28;20531;-59
2021/04/28 22:26:37;;;;;;;15.63;10.35;;;;;;;;;;10362706;28;20068;-59
2021/04/28 22:31:35;;;;;;;17.08;10.57;;;;;;;;;;10361686;28;20051;-59
2021/04/28 22:36:32;;;;;;;12.43;9.63;;;;;;;;;;10363051;28;20489;-59
2021/04/28 22:41:31;;;;;;;12.95;10.20;;;;;;;;;;10362015;28;20072;-59
2021/04/28 22:46:28;;;;;;;13.10;10.55;;;;;;;;;;10362378;28;20048;-59
2021/04/28 22:51:26;;;;;;;13.20;9.70;;;;;;;;;;10361672;28;20052;-60
2021/04/28 22:56:23;;;;;;;11.60;9.35;;;;;;;;;;10361430;28;20059;-59
2021/04/28 23:01:21;;;;;;;11.88;9.52;;;;;;;;;;10361404;28;20076;-59
2021/04/28 23:06:18;;;;;;;9.80;8.75;;;;;;;;;;10361264;28;20032;-59
2021/04/28 23:11:16;;;;;;;15.50;9.85;;;;;;;;;;10361005;28;20052;-59
2021/04/28 23:16:13;;;;;;;12.93;8.57;;;;;;;;;;10360753;28;20397;-59
2021/04/28 23:21:12;;;;;;;12.52;9.43;;;;;;;;;;10360338;28;20064;-59
2021/04/28 23:26:09;;;;;;;13.60;9.68;;;;;;;;;;10360420;28;20047;-59
2021/04/28 23:31:07;;;;;;;14.50;9.85;;;;;;;;;;10360443;28;20074;-59
2021/04/28 23:36:04;;;;;;;11.30;9.10;;;;;;;;;;10359927;28;20400;-60
2021/04/28 23:41:03;;;;;;;11.10;10.00;;;;;;;;;;10359726;28;20048;-59
2021/04/28 23:46:00;;;;;;;11.75;9.05;;;;;;;;;;10360212;28;20051;-59
2021/04/28 23:50:58;;;;;;;11.45;9.40;;;;;;;;;;10359802;28;20040;-59
2021/04/28 23:55:55;;;;;;;12.80;9.23;;;;;;;;;;10359555;28;20059;-59
